sensor_id;sensor_type;location;lat;lon;timestamp;pressure;altitude;pressure_sealevel;temperature;humidity
67099;BME280;54288;53.046;5.668;2022-11-13T00:00:25;103021.88;;;5.94;100.00
67099;BME280;54288;53.046;5.668;2022-11-13T00:03:15;103003.38;;;5.85;100.00
67099;BME280;54288;53.046;5.668;2022-11-13T00:06:01;103009.53;;;5.89;100.00
67099;BME280;54288;53.046;5.668;2022-11-13T00:08:47;102984.00;;;5.77;100.00
67099;BME280;54288;53.046;5.668;2022-11-13T00:11:32;103017.66;;;5.98;100.00
67099;BME280;54288;53.046;5.668;2022-11-13T00:14:16;102975.19;;;5.72;100.00
67099;BME280;54288;53.046;5.668;2022-11-13T00:17:01;102988.91;;;5.68;100.00
67099;BME280;54288;53.046;5.668;2022-11-13T00:19:45;103016.31;;;5.84;100.00
67099;BME280;54288;53.046;5.668;2022-11-13T00:22:30;102987.06;;;5.66;100.00
67099;BME280;54288;53.046;5.668;2022-11-13T00:25:14;102984.41;;;5.64;100.00
67099;BME280;54288;53.046;5.668;2022-11-13T00:27:59;102983.75;;;5.70;100.00
67099;BME280;54288;53.046;5.668;2022-11-13T00:30:43;102972.94;;;5.83;100.00
67099;BME280;54288;53.046;5.668;2022-11-13T00:33:28;102937.22;;;5.77;100.00
67099;BME280;54288;53.046;5.668;2022-11-13T00:36:21;102975.59;;;6.11;100.00
67099;BME280;54288;53.046;5.668;2022-11-13T00:39:06;102969.00;;;6.22;100.00
67099;BME280;54288;53.046;5.668;2022-11-13T00:41:50;102936.63;;;6.12;100.00
67099;BME280;54288;53.046;5.668;2022-11-13T00:44:34;102923.81;;;6.18;100.00
67099;BME280;54288;53.046;5.668;2022-11-13T00:47:18;102935.31;;;6.26;100.00
67099;BME280;54288;53.046;5.668;2022-11-13T00:50:03;102944.16;;;6.31;100.00
67099;BME280;54288;53.046;5.668;2022-11-13T00:52:47;102933.63;;;6.27;100.00
67099;BME280;54288;53.046;5.668;2022-11-13T00:55:31;102954.09;;;6.44;100.00
67099;BME280;54288;53.046;5.668;2022-11-13T00:58:16;102939.13;;;6.37;100.00
67099;BME280;54288;53.046;5.668;2022-11-13T01:01:07;102948.81;;;6.41;100.00
67099;BME280;54288;53.046;5.668;2022-11-13T01:03:55;102937.44;;;6.39;100.00
67099;BME280;54288;53.046;5.668;2022-11-13T01:06:39;102949.03;;;6.49;100.00
67099;BME280;54288;53.046;5.668;2022-11-13T01:09:23;102953.41;;;6.50;100.00
67099;BME280;54288;53.046;5.668;2022-11-13T01:12:07;102949.94;;;6.51;100.00
67099;BME280;54288;53.046;5.668;2022-11-13T01:14:51;102924.25;;;6.33;100.00
67099;BME280;54288;53.046;5.668;2022-11-13T01:17:35;102937.09;;;6.27;100.00
67099;BME280;54288;53.046;5.668;2022-11-13T01:20:22;102953.47;;;6.23;100.00
67099;BME280;54288;53.046;5.668;2022-11-13T01:23:06;102939.19;;;6.11;100.00
67099;BME280;54288;53.046;5.668;2022-11-13T01:25:51;102965.44;;;6.18;100.00
67099;BME280;54288;53.046;5.668;2022-11-13T01:28:36;102965.56;;;6.23;100.00
67099;BME280;54288;53.046;5.668;2022-11-13T01:31:23;102955.03;;;6.18;100.00
67099;BME280;54288;53.046;5.668;2022-11-13T01:34:08;102945.06;;;6.05;100.00
67099;BME280;54288;53.046;5.668;2022-11-13T01:36:52;102934.25;;;5.92;100.00
67099;BME280;54288;53.046;5.668;2022-11-13T01:39:36;102927.97;;;5.85;100.00
67099;BME280;54288;53.046;5.668;2022-11-13T01:42:20;102915.88;;;5.86;100.00
67099;BME280;54288;53.046;5.668;2022-11-13T01:48:35;102911.91;;;5.98;100.00
67099;BME280;54288;53.046;5.668;2022-11-13T01:51:29;102930.47;;;6.10;100.00
67099;BME280;54288;53.046;5.668;2022-11-13T01:54:20;102942.63;;;6.10;100.00
67099;BME280;54288;53.046;5.668;2022-11-13T01:57:05;102912.69;;;5.96;100.00
67099;BME280;54288;53.046;5.668;2022-11-13T01:59:56;102913.41;;;5.90;100.00
67099;BME280;54288;53.046;5.668;2022-11-13T02:02:42;102897.56;;;5.83;100.00
67099;BME280;54288;53.046;5.668;2022-11-13T02:05:26;102889.88;;;5.87;100.00
67099;BME280;54288;53.046;5.668;2022-11-13T02:08:11;102925.66;;;5.94;100.00
67099;BME280;54288;53.046;5.668;2022-11-13T02:10:55;102914.97;;;5.85;100.00
67099;BME280;54288;53.046;5.668;2022-11-13T02:13:40;102884.97;;;5.70;100.00
67099;BME280;54288;53.046;5.668;2022-11-13T02:16:26;102903.66;;;5.83;100.00
67099;BME280;54288;53.046;5.668;2022-11-13T02:19:38;102881.91;;;5.81;100.00
67099;BME280;54288;53.046;5.668;2022-11-13T02:22:40;102887.59;;;5.96;100.00
67099;BME280;54288;53.046;5.668;2022-11-13T02:25:29;102886.56;;;5.91;100.00
67099;BME280;54288;53.046;5.668;2022-11-13T02:28:15;102882.75;;;5.80;100.00
67099;BME280;54288;53.046;5.668;2022-11-13T02:31:10;102926.53;;;5.95;100.00
67099;BME280;54288;53.046;5.668;2022-11-13T02:33:55;102886.88;;;5.75;100.00
67099;BME280;54288;53.046;5.668;2022-11-13T02:36:39;102900.03;;;5.80;100.00
67099;BME280;54288;53.046;5.668;2022-11-13T02:39:23;102898.06;;;5.73;100.00
67099;BME280;54288;53.046;5.668;2022-11-13T02:42:07;102896.84;;;5.62;100.00
67099;BME280;54288;53.046;5.668;2022-11-13T02:44:51;102903.84;;;5.64;100.00
67099;BME280;54288;53.046;5.668;2022-11-13T02:47:35;102907.41;;;5.66;100.00
67099;BME280;54288;53.046;5.668;2022-11-13T02:50:20;102904.81;;;5.66;100.00
67099;BME280;54288;53.046;5.668;2022-11-13T02:53:05;102907.59;;;5.72;100.00
67099;BME280;54288;53.046;5.668;2022-11-13T02:55:49;102898.75;;;5.67;100.00
67099;BME280;54288;53.046;5.668;2022-11-13T02:58:33;102876.09;;;5.63;100.00
67099;BME280;54288;53.046;5.668;2022-11-13T03:01:17;102913.22;;;5.84;100.00
67099;BME280;54288;53.046;5.668;2022-11-13T03:04:01;102911.53;;;5.86;100.00
67099;BME280;54288;53.046;5.668;2022-11-13T03:06:45;102908.88;;;5.85;100.00
67099;BME280;54288;53.046;5.668;2022-11-13T03:09:30;102887.59;;;5.70;100.00
67099;BME280;54288;53.046;5.668;2022-11-13T03:12:14;102893.03;;;5.77;100.00
67099;BME280;54288;53.046;5.668;2022-11-13T03:14:59;102846.47;;;5.58;100.00
67099;BME280;54288;53.046;5.668;2022-11-13T03:17:43;102859.59;;;5.63;100.00
67099;BME280;54288;53.046;5.668;2022-11-13T03:20:27;102883.66;;;5.82;100.00
67099;BME280;54288;53.046;5.668;2022-11-13T03:23:11;102864.28;;;5.73;100.00
67099;BME280;54288;53.046;5.668;2022-11-13T03:25:55;102874.16;;;5.83;100.00
67099;BME280;54288;53.046;5.668;2022-11-13T03:28:40;102853.13;;;5.77;100.00
67099;BME280;54288;53.046;5.668;2022-11-13T03:31:24;102850.34;;;5.71;100.00
67099;BME280;54288;53.046;5.668;2022-11-13T03:34:08;102841.66;;;5.70;100.00
67099;BME280;54288;53.046;5.668;2022-11-13T03:36:52;102864.38;;;5.76;100.00
67099;BME280;54288;53.046;5.668;2022-11-13T03:39:36;102876.88;;;5.87;100.00
67099;BME280;54288;53.046;5.668;2022-11-13T03:42:20;102877.84;;;5.89;100.00
67099;BME280;54288;53.046;5.668;2022-11-13T03:45:04;102879.66;;;5.92;100.00
67099;BME280;54288;53.046;5.668;2022-11-13T03:47:49;102835.59;;;5.70;100.00
67099;BME280;54288;53.046;5.668;2022-11-13T03:50:33;102877.06;;;5.92;100.00
67099;BME280;54288;53.046;5.668;2022-11-13T03:53:17;102860.25;;;5.82;100.00
67099;BME280;54288;53.046;5.668;2022-11-13T03:56:01;102876.09;;;5.90;100.00
67099;BME280;54288;53.046;5.668;2022-11-13T03:58:46;102864.72;;;5.86;100.00
67099;BME280;54288;53.046;5.668;2022-11-13T04:01:30;102877.06;;;5.93;100.00
67099;BME280;54288;53.046;5.668;2022-11-13T04:04:15;102857.84;;;5.88;100.00
67099;BME280;54288;53.046;5.668;2022-11-13T04:06:59;102812.28;;;5.73;100.00
67099;BME280;54288;53.046;5.668;2022-11-13T04:09:43;102842.47;;;5.94;100.00
67099;BME280;54288;53.046;5.668;2022-11-13T04:12:27;102830.84;;;5.83;100.00
67099;BME280;54288;53.046;5.668;2022-11-13T04:15:11;102819.41;;;5.78;100.00
67099;BME280;54288;53.046;5.668;2022-11-13T04:17:55;102842.59;;;5.99;100.00
67099;BME280;54288;53.046;5.668;2022-11-13T04:20:39;102806.41;;;5.78;100.00
67099;BME280;54288;53.046;5.668;2022-11-13T04:23:23;102821.44;;;5.88;100.00
67099;BME280;54288;53.046;5.668;2022-11-13T04:26:08;102816.25;;;5.88;100.00
67099;BME280;54288;53.046;5.668;2022-11-13T04:28:52;102844.44;;;6.03;100.00
67099;BME280;54288;53.046;5.668;2022-11-13T04:31:36;102837.44;;;6.00;100.00
67099;BME280;54288;53.046;5.668;2022-11-13T04:34:20;102825.44;;;6.05;100.00
67099;BME280;54288;53.046;5.668;2022-11-13T04:37:04;102817.44;;;5.98;100.00
67099;BME280;54288;53.046;5.668;2022-11-13T04:39:48;102830.63;;;6.05;100.00
67099;BME280;54288;53.046;5.668;2022-11-13T04:42:33;102808.66;;;5.94;100.00
67099;BME280;54288;53.046;5.668;2022-11-13T04:45:33;102798.91;;;5.87;100.00
67099;BME280;54288;53.046;5.668;2022-11-13T04:48:17;102807.47;;;5.83;100.00
67099;BME280;54288;53.046;5.668;2022-11-13T04:51:02;102837.25;;;5.94;100.00
67099;BME280;54288;53.046;5.668;2022-11-13T04:53:46;102813.22;;;5.75;100.00
67099;BME280;54288;53.046;5.668;2022-11-13T04:56:30;102815.84;;;5.76;100.00
67099;BME280;54288;53.046;5.668;2022-11-13T04:59:14;102816.75;;;5.77;100.00
67099;BME280;54288;53.046;5.668;2022-11-13T05:01:59;102816.03;;;5.81;100.00
67099;BME280;54288;53.046;5.668;2022-11-13T05:04:43;102817.88;;;5.83;100.00
67099;BME280;54288;53.046;5.668;2022-11-13T05:07:27;102815.84;;;5.76;100.00
67099;BME280;54288;53.046;5.668;2022-11-13T05:10:11;102814.94;;;5.74;100.00
67099;BME280;54288;53.046;5.668;2022-11-13T05:12:55;102844.06;;;5.91;100.00
67099;BME280;54288;53.046;5.668;2022-11-13T05:15:39;102830.06;;;5.86;100.00
67099;BME280;54288;53.046;5.668;2022-11-13T05:18:24;102814.09;;;5.75;100.00
67099;BME280;54288;53.046;5.668;2022-11-13T05:21:09;102836.97;;;5.85;100.00
67099;BME280;54288;53.046;5.668;2022-11-13T05:23:53;102826.34;;;5.79;100.00
67099;BME280;54288;53.046;5.668;2022-11-13T05:26:38;102835.09;;;5.81;100.00
67099;BME280;54288;53.046;5.668;2022-11-13T05:29:23;102813.72;;;5.63;100.00
67099;BME280;54288;53.046;5.668;2022-11-13T05:32:07;102792.56;;;5.51;100.00
67099;BME280;54288;53.046;5.668;2022-11-13T05:34:52;102794.44;;;5.55;100.00
67099;BME280;54288;53.046;5.668;2022-11-13T05:37:36;102806.94;;;5.68;100.00
67099;BME280;54288;53.046;5.668;2022-11-13T05:40:20;102797.09;;;5.58;100.00
67099;BME280;54288;53.046;5.668;2022-11-13T05:43:04;102804.16;;;5.62;100.00
67099;BME280;54288;53.046;5.668;2022-11-13T05:45:49;102786.63;;;5.55;100.00
67099;BME280;54288;53.046;5.668;2022-11-13T05:48:34;102762.16;;;5.49;100.00
67099;BME280;54288;53.046;5.668;2022-11-13T05:51:23;102766.72;;;5.56;100.00
67099;BME280;54288;53.046;5.668;2022-11-13T05:54:07;102771.97;;;5.57;100.00
67099;BME280;54288;53.046;5.668;2022-11-13T05:56:52;102805.28;;;5.70;100.00
67099;BME280;54288;53.046;5.668;2022-11-13T05:59:36;102779.81;;;5.59;100.00
67099;BME280;54288;53.046;5.668;2022-11-13T06:02:20;102771.84;;;5.54;100.00
67099;BME280;54288;53.046;5.668;2022-11-13T06:05:05;102774.44;;;5.53;100.00
67099;BME280;54288;53.046;5.668;2022-11-13T06:07:49;102785.00;;;5.59;100.00
67099;BME280;54288;53.046;5.668;2022-11-13T06:10:34;102774.50;;;5.56;100.00
67099;BME280;54288;53.046;5.668;2022-11-13T06:13:18;102767.56;;;5.55;100.00
67099;BME280;54288;53.046;5.668;2022-11-13T06:18:49;102749.22;;;5.50;100.00
67099;BME280;54288;53.046;5.668;2022-11-13T06:21:39;102765.84;;;5.55;100.00
67099;BME280;54288;53.046;5.668;2022-11-13T06:24:23;102756.97;;;5.49;100.00
67099;BME280;54288;53.046;5.668;2022-11-13T06:27:07;102767.69;;;5.59;100.00
67099;BME280;54288;53.046;5.668;2022-11-13T06:29:51;102758.72;;;5.50;100.00
67099;BME280;54288;53.046;5.668;2022-11-13T06:32:35;102755.16;;;5.46;100.00
67099;BME280;54288;53.046;5.668;2022-11-13T06:35:19;102758.66;;;5.47;100.00
67099;BME280;54288;53.046;5.668;2022-11-13T06:38:04;102765.47;;;5.43;100.00
67099;BME280;54288;53.046;5.668;2022-11-13T06:40:48;102747.91;;;5.36;100.00
67099;BME280;54288;53.046;5.668;2022-11-13T06:43:33;102756.78;;;5.43;100.00
67099;BME280;54288;53.046;5.668;2022-11-13T06:46:23;102757.69;;;5.43;100.00
67099;BME280;54288;53.046;5.668;2022-11-13T06:49:07;102763.09;;;5.51;100.00
67099;BME280;54288;53.046;5.668;2022-11-13T06:51:52;102767.41;;;5.50;100.00
67099;BME280;54288;53.046;5.668;2022-11-13T06:54:36;102770.09;;;5.53;100.00
67099;BME280;54288;53.046;5.668;2022-11-13T06:57:20;102752.84;;;5.55;100.00
67099;BME280;54288;53.046;5.668;2022-11-13T07:00:04;102736.13;;;5.47;100.00
67099;BME280;54288;53.046;5.668;2022-11-13T07:02:49;102731.78;;;5.46;100.00
67099;BME280;54288;53.046;5.668;2022-11-13T07:05:36;102770.56;;;5.68;100.00
67099;BME280;54288;53.046;5.668;2022-11-13T07:08:21;102757.47;;;5.65;100.00
67099;BME280;54288;53.046;5.668;2022-11-13T07:11:06;102733.72;;;5.53;100.00
67099;BME280;54288;53.046;5.668;2022-11-13T07:13:50;102763.44;;;5.61;100.00
67099;BME280;54288;53.046;5.668;2022-11-13T07:16:35;102759.88;;;5.59;100.00
67099;BME280;54288;53.046;5.668;2022-11-13T07:19:19;102740.72;;;5.56;100.00
67099;BME280;54288;53.046;5.668;2022-11-13T07:22:03;102753.03;;;5.61;100.00
67099;BME280;54288;53.046;5.668;2022-11-13T07:24:47;102746.88;;;5.58;100.00
67099;BME280;54288;53.046;5.668;2022-11-13T07:27:31;102766.09;;;5.64;100.00
67099;BME280;54288;53.046;5.668;2022-11-13T07:30:16;102746.81;;;5.56;100.00
67099;BME280;54288;53.046;5.668;2022-11-13T07:33:01;102761.75;;;5.63;100.00
67099;BME280;54288;53.046;5.668;2022-11-13T07:35:46;102758.31;;;5.64;100.00
67099;BME280;54288;53.046;5.668;2022-11-13T07:38:30;102744.28;;;5.59;100.00
67099;BME280;54288;53.046;5.668;2022-11-13T07:41:14;102731.22;;;5.56;100.00
67099;BME280;54288;53.046;5.668;2022-11-13T07:43:58;102746.47;;;5.74;100.00
67099;BME280;54288;53.046;5.668;2022-11-13T07:46:42;102733.56;;;5.77;100.00
67099;BME280;54288;53.046;5.668;2022-11-13T07:49:26;102745.19;;;5.88;100.00
67099;BME280;54288;53.046;5.668;2022-11-13T07:52:10;102747.06;;;5.93;100.00
67099;BME280;54288;53.046;5.668;2022-11-13T07:54:55;102742.16;;;6.02;100.00
67099;BME280;54288;53.046;5.668;2022-11-13T07:57:39;102736.09;;;6.03;100.00
67099;BME280;54288;53.046;5.668;2022-11-13T08:00:27;102732.69;;;6.06;100.00
67099;BME280;54288;53.046;5.668;2022-11-13T08:03:14;102746.94;;;6.20;100.00
67099;BME280;54288;53.046;5.668;2022-11-13T08:06:01;102721.78;;;6.17;100.00
67099;BME280;54288;53.046;5.668;2022-11-13T08:08:47;102736.13;;;6.34;100.00
67099;BME280;54288;53.046;5.668;2022-11-13T08:11:32;102732.94;;;6.46;100.00
67099;BME280;54288;53.046;5.668;2022-11-13T08:14:16;102739.41;;;6.60;100.00
67099;BME280;54288;53.046;5.668;2022-11-13T08:17:00;102729.03;;;6.63;100.00
67099;BME280;54288;53.046;5.668;2022-11-13T08:19:45;102726.50;;;6.64;100.00
67099;BME280;54288;53.046;5.668;2022-11-13T08:22:29;102713.38;;;6.60;100.00
67099;BME280;54288;53.046;5.668;2022-11-13T08:25:13;102721.34;;;6.67;100.00
67099;BME280;54288;53.046;5.668;2022-11-13T08:27:58;102727.56;;;6.72;100.00
67099;BME280;54288;53.046;5.668;2022-11-13T08:30:43;102717.75;;;6.62;100.00
67099;BME280;54288;53.046;5.668;2022-11-13T08:33:28;102722.28;;;6.71;100.00
67099;BME280;54288;53.046;5.668;2022-11-13T08:36:27;102710.22;;;6.73;100.00
67099;BME280;54288;53.046;5.668;2022-11-13T08:39:11;102727.09;;;6.88;100.00
67099;BME280;54288;53.046;5.668;2022-11-13T08:41:55;102713.31;;;6.92;100.00
67099;BME280;54288;53.046;5.668;2022-11-13T08:44:39;102730.31;;;7.14;100.00
67099;BME280;54288;53.046;5.668;2022-11-13T08:47:23;102713.47;;;7.37;100.00
67099;BME280;54288;53.046;5.668;2022-11-13T08:50:09;102701.59;;;7.49;100.00
67099;BME280;54288;53.046;5.668;2022-11-13T08:52:56;102684.72;;;7.72;100.00
67099;BME280;54288;53.046;5.668;2022-11-13T08:55:41;102693.03;;;7.96;100.00
67099;BME280;54288;53.046;5.668;2022-11-13T08:58:25;102695.97;;;8.14;100.00
67099;BME280;54288;53.046;5.668;2022-11-13T09:01:10;102685.94;;;8.34;100.00
67099;BME280;54288;53.046;5.668;2022-11-13T09:03:54;102698.41;;;8.50;100.00
67099;BME280;54288;53.046;5.668;2022-11-13T09:06:38;102717.25;;;8.81;100.00
67099;BME280;54288;53.046;5.668;2022-11-13T09:09:23;102721.06;;;9.03;99.82
67099;BME280;54288;53.046;5.668;2022-11-13T09:12:08;102730.16;;;9.27;99.20
67099;BME280;54288;53.046;5.668;2022-11-13T09:14:52;102690.94;;;9.27;97.70
67099;BME280;54288;53.046;5.668;2022-11-13T09:17:37;102675.50;;;9.42;98.07
67099;BME280;54288;53.046;5.668;2022-11-13T09:20:22;102689.66;;;9.59;96.31
67099;BME280;54288;53.046;5.668;2022-11-13T09:23:07;102679.28;;;9.68;95.70
67099;BME280;54288;53.046;5.668;2022-11-13T09:25:52;102658.75;;;10.01;94.83
67099;BME280;54288;53.046;5.668;2022-11-13T09:28:37;102676.34;;;10.10;93.43
67099;BME280;54288;53.046;5.668;2022-11-13T09:31:21;102686.06;;;10.21;93.32
67099;BME280;54288;53.046;5.668;2022-11-13T09:34:07;102673.81;;;10.17;92.63
67099;BME280;54288;53.046;5.668;2022-11-13T09:36:51;102672.91;;;10.17;92.13
67099;BME280;54288;53.046;5.668;2022-11-13T09:39:36;102669.44;;;10.19;90.79
67099;BME280;54288;53.046;5.668;2022-11-13T09:42:25;102665.06;;;10.18;91.42
67099;BME280;54288;53.046;5.668;2022-11-13T09:45:14;102645.84;;;10.15;90.79
67099;BME280;54288;53.046;5.668;2022-11-13T09:48:13;102655.59;;;10.32;89.91
67099;BME280;54288;53.046;5.668;2022-11-13T09:51:16;102661.13;;;10.62;89.05
67099;BME280;54288;53.046;5.668;2022-11-13T09:54:05;102663.03;;;10.86;86.62
67099;BME280;54288;53.046;5.668;2022-11-13T10:00:08;102658.88;;;11.16;82.94
67099;BME280;54288;53.046;5.668;2022-11-13T10:03:29;102669.41;;;11.22;85.11
67099;BME280;54288;53.046;5.668;2022-11-13T10:09:34;102639.81;;;11.41;83.75
67099;BME280;54288;53.046;5.668;2022-11-13T10:12:21;102639.94;;;11.65;82.05
67099;BME280;54288;53.046;5.668;2022-11-13T10:15:09;102655.75;;;11.89;82.58
67099;BME280;54288;53.046;5.668;2022-11-13T10:18:24;102667.22;;;12.19;81.38
67099;BME280;54288;53.046;5.668;2022-11-13T10:21:41;102680.25;;;11.82;80.42
67099;BME280;54288;53.046;5.668;2022-11-13T10:24:43;102645.06;;;11.48;82.22
67099;BME280;54288;53.046;5.668;2022-11-13T10:27:28;102661.88;;;11.84;82.04
67099;BME280;54288;53.046;5.668;2022-11-13T10:30:16;102623.41;;;12.08;80.01
67099;BME280;54288;53.046;5.668;2022-11-13T10:33:05;102641.84;;;12.38;77.53
67099;BME280;54288;53.046;5.668;2022-11-13T10:35:52;102656.75;;;12.52;77.82
67099;BME280;54288;53.046;5.668;2022-11-13T10:38:44;102620.84;;;12.32;79.35
67099;BME280;54288;53.046;5.668;2022-11-13T10:41:29;102645.31;;;12.25;78.53
67099;BME280;54288;53.046;5.668;2022-11-13T10:44:33;102646.13;;;11.93;80.14
67099;BME280;54288;53.046;5.668;2022-11-13T10:47:20;102636.53;;;11.93;80.45
67099;BME280;54288;53.046;5.668;2022-11-13T10:50:21;102626.00;;;11.84;80.12
67099;BME280;54288;53.046;5.668;2022-11-13T10:53:15;102626.91;;;11.98;80.31
67099;BME280;54288;53.046;5.668;2022-11-13T10:56:00;102610.31;;;12.11;81.92
67099;BME280;54288;53.046;5.668;2022-11-13T10:58:44;102610.31;;;12.20;80.48
67099;BME280;54288;53.046;5.668;2022-11-13T11:01:29;102598.94;;;12.25;82.02
67099;BME280;54288;53.046;5.668;2022-11-13T11:07:16;102594.53;;;12.05;80.72
67099;BME280;54288;53.046;5.668;2022-11-13T11:10:02;102614.66;;;12.16;81.25
67099;BME280;54288;53.046;5.668;2022-11-13T11:12:56;102570.91;;;12.18;79.44
67099;BME280;54288;53.046;5.668;2022-11-13T11:15:56;102595.44;;;12.49;79.69
67099;BME280;54288;53.046;5.668;2022-11-13T11:19:04;102583.16;;;12.58;77.78
67099;BME280;54288;53.046;5.668;2022-11-13T11:22:01;102589.28;;;12.74;78.35
67099;BME280;54288;53.046;5.668;2022-11-13T11:27:53;102568.25;;;12.60;77.94
67099;BME280;54288;53.046;5.668;2022-11-13T11:30:48;102577.88;;;12.67;77.45
67099;BME280;54288;53.046;5.668;2022-11-13T11:33:53;102551.66;;;12.54;77.44
67099;BME280;54288;53.046;5.668;2022-11-13T11:39:46;102570.88;;;12.60;74.66
67099;BME280;54288;53.046;5.668;2022-11-13T11:42:44;102579.63;;;12.79;76.46
67099;BME280;54288;53.046;5.668;2022-11-13T11:45:42;102561.22;;;13.00;76.16
67099;BME280;54288;53.046;5.668;2022-11-13T11:48:31;102545.41;;;13.03;77.66
67099;BME280;54288;53.046;5.668;2022-11-13T11:51:43;102549.81;;;12.99;78.04
67099;BME280;54288;53.046;5.668;2022-11-13T11:54:40;102540.16;;;13.06;78.84
67099;BME280;54288;53.046;5.668;2022-11-13T12:00:20;102522.56;;;13.17;78.13
67099;BME280;54288;53.046;5.668;2022-11-13T12:06:13;102533.00;;;13.35;77.66
67099;BME280;54288;53.046;5.668;2022-11-13T12:12:23;102539.16;;;13.34;77.12
67099;BME280;54288;53.046;5.668;2022-11-13T12:15:30;102532.94;;;13.44;77.55
67099;BME280;54288;53.046;5.668;2022-11-13T12:18:45;102520.63;;;13.49;76.26
67099;BME280;54288;53.046;5.668;2022-11-13T12:27:53;102489.97;;;13.40;75.13
67099;BME280;54288;53.046;5.668;2022-11-13T12:30:58;102503.13;;;13.45;75.84
67099;BME280;54288;53.046;5.668;2022-11-13T12:34:12;102497.81;;;13.51;77.90
67099;BME280;54288;53.046;5.668;2022-11-13T12:37:07;102496.06;;;13.53;78.36
67099;BME280;54288;53.046;5.668;2022-11-13T12:39:56;102485.47;;;13.62;77.26
67099;BME280;54288;53.046;5.668;2022-11-13T12:43:01;102472.31;;;13.62;76.47
67099;BME280;54288;53.046;5.668;2022-11-13T12:45:54;102479.22;;;13.70;76.71
67099;BME280;54288;53.046;5.668;2022-11-13T12:48:46;102458.22;;;13.64;77.62
67099;BME280;54288;53.046;5.668;2022-11-13T12:51:39;102459.16;;;13.60;76.58
67099;BME280;54288;53.046;5.668;2022-11-13T12:54:31;102466.97;;;13.69;77.24
67099;BME280;54288;53.046;5.668;2022-11-13T12:57:19;102455.59;;;13.64;78.94
67099;BME280;54288;53.046;5.668;2022-11-13T13:00:30;102466.06;;;13.75;79.01
67099;BME280;54288;53.046;5.668;2022-11-13T13:03:39;102443.31;;;13.65;78.88
67099;BME280;54288;53.046;5.668;2022-11-13T13:09:50;102449.38;;;13.74;80.33
67099;BME280;54288;53.046;5.668;2022-11-13T13:13:03;102421.47;;;13.52;78.39
67099;BME280;54288;53.046;5.668;2022-11-13T13:15:57;102442.56;;;13.46;79.45
67099;BME280;54288;53.046;5.668;2022-11-13T13:18:42;102422.44;;;13.38;79.13
67099;BME280;54288;53.046;5.668;2022-11-13T13:21:39;102406.69;;;13.36;80.64
67099;BME280;54288;53.046;5.668;2022-11-13T13:24:32;102417.22;;;13.36;78.44
67099;BME280;54288;53.046;5.668;2022-11-13T13:27:22;102421.59;;;13.33;77.50
67099;BME280;54288;53.046;5.668;2022-11-13T13:31:21;102420.78;;;13.28;78.15
67099;BME280;54288;53.046;5.668;2022-11-13T13:36:56;102388.41;;;13.14;78.77
67099;BME280;54288;53.046;5.668;2022-11-13T13:49:11;102413.91;;;13.01;81.42
67099;BME280;54288;53.046;5.668;2022-11-13T13:51:57;102414.81;;;12.90;82.42
67099;BME280;54288;53.046;5.668;2022-11-13T13:54:44;102410.47;;;12.78;84.42
67099;BME280;54288;53.046;5.668;2022-11-13T13:57:29;102410.53;;;12.69;84.47
67099;BME280;54288;53.046;5.668;2022-11-13T14:00:15;102405.31;;;12.60;85.64
67099;BME280;54288;53.046;5.668;2022-11-13T14:03:02;102402.72;;;12.50;86.59
67099;BME280;54288;53.046;5.668;2022-11-13T14:05:46;102398.34;;;12.44;87.28
67099;BME280;54288;53.046;5.668;2022-11-13T14:08:30;102398.38;;;12.43;87.95
67099;BME280;54288;53.046;5.668;2022-11-13T14:11:22;102397.47;;;12.47;88.63
67099;BME280;54288;53.046;5.668;2022-11-13T14:14:17;102396.63;;;12.43;88.78
67099;BME280;54288;53.046;5.668;2022-11-13T14:17:02;102366.03;;;12.32;88.89
67099;BME280;54288;53.046;5.668;2022-11-13T14:19:52;102389.63;;;12.42;88.88
67099;BME280;54288;53.046;5.668;2022-11-13T14:22:37;102385.25;;;12.32;89.57
67099;BME280;54288;53.046;5.668;2022-11-13T14:25:26;102391.41;;;12.25;89.54
67099;BME280;54288;53.046;5.668;2022-11-13T14:28:18;102389.66;;;12.32;89.43
67099;BME280;54288;53.046;5.668;2022-11-13T14:31:06;102382.66;;;12.28;89.16
67099;BME280;54288;53.046;5.668;2022-11-13T14:33:52;102401.03;;;12.31;89.10
67099;BME280;54288;53.046;5.668;2022-11-13T14:36:37;102375.69;;;12.18;88.67
67099;BME280;54288;53.046;5.668;2022-11-13T14:39:29;102366.94;;;12.13;88.91
67099;BME280;54288;53.046;5.668;2022-11-13T14:42:21;102387.03;;;12.21;89.38
67099;BME280;54288;53.046;5.668;2022-11-13T14:45:28;102385.34;;;12.08;89.31
67099;BME280;54288;53.046;5.668;2022-11-13T14:48:25;102383.59;;;12.02;88.51
67099;BME280;54288;53.046;5.668;2022-11-13T14:51:31;102367.00;;;11.92;87.26
67099;BME280;54288;53.046;5.668;2022-11-13T14:54:34;102368.75;;;11.82;86.98
67099;BME280;54288;53.046;5.668;2022-11-13T14:57:19;102367.00;;;11.77;86.45
67099;BME280;54288;53.046;5.668;2022-11-13T15:00:17;102355.66;;;11.63;87.33
67099;BME280;54288;53.046;5.668;2022-11-13T15:03:03;102344.25;;;11.53;86.81
67099;BME280;54288;53.046;5.668;2022-11-13T15:05:49;102350.38;;;11.54;87.27
67099;BME280;54288;53.046;5.668;2022-11-13T15:08:34;102364.34;;;11.48;87.27
67099;BME280;54288;53.046;5.668;2022-11-13T15:11:21;102347.75;;;11.36;88.48
67099;BME280;54288;53.046;5.668;2022-11-13T15:14:15;102351.22;;;11.23;89.21
67099;BME280;54288;53.046;5.668;2022-11-13T15:16:59;102352.09;;;11.12;89.78
67099;BME280;54288;53.046;5.668;2022-11-13T15:19:46;102354.72;;;11.04;90.73
67099;BME280;54288;53.046;5.668;2022-11-13T15:22:31;102350.31;;;10.94;91.01
67099;BME280;54288;53.046;5.668;2022-11-13T15:25:19;102354.69;;;10.86;91.18
67099;BME280;54288;53.046;5.668;2022-11-13T15:28:03;102340.69;;;10.80;90.95
67099;BME280;54288;53.046;5.668;2022-11-13T15:30:47;102334.53;;;10.75;90.38